sensor_id;sensor_type;location;lat;lon;timestamp;temperature;humidity
2407;DHT22;37709;53.480;9.688;2023-02-19T00:02:18;3.60;99.90
2407;DHT22;37709;53.480;9.688;2023-02-19T00:04:45;3.60;99.90
2407;DHT22;37709;53.480;9.688;2023-02-19T00:07:13;3.60;99.90
2407;DHT22;37709;53.480;9.688;2023-02-19T00:09:40;3.60;99.90
2407;DHT22;37709;53.480;9.688;2023-02-19T00:12:07;3.60;99.90
2407;DHT22;37709;53.480;9.688;2023-02-19T00:14:34;3.50;99.90
2407;DHT22;37709;53.480;9.688;2023-02-19T00:17:02;3.50;99.90
2407;DHT22;37709;53.480;9.688;2023-02-19T00:19:29;3.50;99.90
2407;DHT22;37709;53.480;9.688;2023-02-19T00:21:56;3.50;99.90
2407;DHT22;37709;53.480;9.688;2023-02-19T00:24:24;3.50;99.90
2407;DHT22;37709;53.480;9.688;2023-02-19T00:26:51;3.50;99.90
2407;DHT22;37709;53.480;9.688;2023-02-19T00:29:20;3.50;99.90
2407;DHT22;37709;53.480;9.688;2023-02-19T00:31:47;3.50;99.90
2407;DHT22;37709;53.480;9.688;2023-02-19T00:34:15;3.50;99.90
2407;DHT22;37709;53.480;9.688;2023-02-19T00:36:43;3.50;99.90
2407;DHT22;37709;53.480;9.688;2023-02-19T00:39:14;3.50;99.90
2407;DHT22;37709;53.480;9.688;2023-02-19T00:41:42;3.50;99.90
2407;DHT22;37709;53.480;9.688;2023-02-19T00:44:11;3.50;99.90
2407;DHT22;37709;53.480;9.688;2023-02-19T00:46:44;3.50;99.90
2407;DHT22;37709;53.480;9.688;2023-02-19T00:49:18;3.50;99.90
2407;DHT22;37709;53.480;9.688;2023-02-19T00:51:47;3.50;99.90
2407;DHT22;37709;53.480;9.688;2023-02-19T00:54:15;3.50;99.90
2407;DHT22;37709;53.480;9.688;2023-02-19T00:56:42;3.50;99.90
2407;DHT22;37709;53.480;9.688;2023-02-19T00:59:10;3.50;99.90
2407;DHT22;37709;53.480;9.688;2023-02-19T01:01:37;3.50;99.90
2407;DHT22;37709;53.480;9.688;2023-02-19T01:04:05;3.50;99.90
2407;DHT22;37709;53.480;9.688;2023-02-19T01:06:33;3.50;99.90
2407;DHT22;37709;53.480;9.688;2023-02-19T01:09:02;3.50;99.90
2407;DHT22;37709;53.480;9.688;2023-02-19T01:11:30;3.50;99.90
2407;DHT22;37709;53.480;9.688;2023-02-19T01:13:59;3.50;99.90
2407;DHT22;37709;53.480;9.688;2023-02-19T01:16:27;3.50;99.90
2407;DHT22;37709;53.480;9.688;2023-02-19T01:18:56;3.50;99.90
2407;DHT22;37709;53.480;9.688;2023-02-19T01:21:24;3.50;99.90
2407;DHT22;37709;53.480;9.688;2023-02-19T01:23:53;3.50;99.90
2407;DHT22;37709;53.480;9.688;2023-02-19T01:26:22;3.50;99.90
2407;DHT22;37709;53.480;9.688;2023-02-19T01:28:52;3.50;99.90
2407;DHT22;37709;53.480;9.688;2023-02-19T01:31:23;3.50;99.90
2407;DHT22;37709;53.480;9.688;2023-02-19T01:33:56;3.50;99.90
2407;DHT22;37709;53.480;9.688;2023-02-19T01:36:24;3.50;99.90
2407;DHT22;37709;53.480;9.688;2023-02-19T01:38:53;3.50;99.90
2407;DHT22;37709;53.480;9.688;2023-02-19T01:41:22;3.50;99.90
2407;DHT22;37709;53.480;9.688;2023-02-19T01:44:03;3.50;99.90
2407;DHT22;37709;53.480;9.688;2023-02-19T01:46:45;3.50;99.90
2407;DHT22;37709;53.480;9.688;2023-02-19T01:49:25;3.50;99.90
2407;DHT22;37709;53.480;9.688;2023-02-19T01:52:09;3.50;99.90
2407;DHT22;37709;53.480;9.688;2023-02-19T01:54:41;3.50;99.90
2407;DHT22;37709;53.480;9.688;2023-02-19T01:57:14;3.50;99.90
2407;DHT22;37709;53.480;9.688;2023-02-19T01:59:44;3.50;99.90
2407;DHT22;37709;53.480;9.688;2023-02-19T02:02:12;3.50;99.90
2407;DHT22;37709;53.480;9.688;2023-02-19T02:04:40;3.50;99.90
2407;DHT22;37709;53.480;9.688;2023-02-19T02:07:07;3.50;99.90
2407;DHT22;37709;53.480;9.688;2023-02-19T02:09:55;3.50;99.90
2407;DHT22;37709;53.480;9.688;2023-02-19T02:12:42;3.50;99.90
2407;DHT22;37709;53.480;9.688;2023-02-19T02:15:10;3.50;99.90
2407;DHT22;37709;53.480;9.688;2023-02-19T02:25:56;3.50;99.90
2407;DHT22;37709;53.480;9.688;2023-02-19T02:31:09;3.50;99.90
2407;DHT22;37709;53.480;9.688;2023-02-19T02:34:01;3.50;99.90
2407;DHT22;37709;53.480;9.688;2023-02-19T02:36:34;3.50;99.90
2407;DHT22;37709;53.480;9.688;2023-02-19T02:39:07;3.50;99.90
2407;DHT22;37709;53.480;9.688;2023-02-19T02:41:48;3.50;99.90
2407;DHT22;37709;53.480;9.688;2023-02-19T02:44:36;3.50;99.90
2407;DHT22;37709;53.480;9.688;2023-02-19T02:47:05;3.50;99.90
2407;DHT22;37709;53.480;9.688;2023-02-19T02:49:33;3.50;99.90
2407;DHT22;37709;53.480;9.688;2023-02-19T02:52:21;3.40;99.90
2407;DHT22;37709;53.480;9.688;2023-02-19T02:55:10;3.40;99.90
2407;DHT22;37709;53.480;9.688;2023-02-19T02:57:37;3.30;99.90
2407;DHT22;37709;53.480;9.688;2023-02-19T03:00:05;3.30;99.90
2407;DHT22;37709;53.480;9.688;2023-02-19T03:02:33;3.20;99.90
2407;DHT22;37709;53.480;9.688;2023-02-19T03:05:06;3.20;99.90
2407;DHT22;37709;53.480;9.688;2023-02-19T03:08:08;3.20;99.90
2407;DHT22;37709;53.480;9.688;2023-02-19T03:11:00;3.20;99.90
2407;DHT22;37709;53.480;9.688;2023-02-19T03:13:52;3.20;99.90
2407;DHT22;37709;53.480;9.688;2023-02-19T03:16:41;3.20;99.90
2407;DHT22;37709;53.480;9.688;2023-02-19T03:19:33;3.20;99.90
2407;DHT22;37709;53.480;9.688;2023-02-19T03:22:48;3.10;99.90
2407;DHT22;37709;53.480;9.688;2023-02-19T03:25:35;3.10;99.90
2407;DHT22;37709;53.480;9.688;2023-02-19T03:28:19;3.10;99.90
2407;DHT22;37709;53.480;9.688;2023-02-19T03:31:10;3.10;99.90
2407;DHT22;37709;53.480;9.688;2023-02-19T03:33:41;3.10;99.90
2407;DHT22;37709;53.480;9.688;2023-02-19T03:36:11;3.10;99.90
2407;DHT22;37709;53.480;9.688;2023-02-19T03:38:42;3.10;99.90
2407;DHT22;37709;53.480;9.688;2023-02-19T03:41:22;3.10;99.90
2407;DHT22;37709;53.480;9.688;2023-02-19T03:49:42;3.00;99.90
2407;DHT22;37709;53.480;9.688;2023-02-19T03:52:51;3.00;99.90
2407;DHT22;37709;53.480;9.688;2023-02-19T03:55:43;3.00;99.90
2407;DHT22;37709;53.480;9.688;2023-02-19T03:58:29;3.00;99.90
2407;DHT22;37709;53.480;9.688;2023-02-19T04:01:06;2.90;99.90
2407;DHT22;37709;53.480;9.688;2023-02-19T04:03:51;2.90;99.90
2407;DHT22;37709;53.480;9.688;2023-02-19T04:06:25;2.90;99.90
2407;DHT22;37709;53.480;9.688;2023-02-19T04:08:55;2.90;99.90
2407;DHT22;37709;53.480;9.688;2023-02-19T04:11:25;2.80;99.90
2407;DHT22;37709;53.480;9.688;2023-02-19T04:14:09;2.80;99.90
2407;DHT22;37709;53.480;9.688;2023-02-19T04:16:39;2.80;99.90
2407;DHT22;37709;53.480;9.688;2023-02-19T04:19:11;2.70;99.90
2407;DHT22;37709;53.480;9.688;2023-02-19T04:21:40;2.70;99.90
2407;DHT22;37709;53.480;9.688;2023-02-19T04:24:17;2.70;99.90
2407;DHT22;37709;53.480;9.688;2023-02-19T04:26:46;2.70;99.90
2407;DHT22;37709;53.480;9.688;2023-02-19T04:29:13;2.70;99.90
2407;DHT22;37709;53.480;9.688;2023-02-19T04:31:41;2.70;99.90
2407;DHT22;37709;53.480;9.688;2023-02-19T04:34:08;2.70;99.90
2407;DHT22;37709;53.480;9.688;2023-02-19T04:36:36;2.70;99.90
2407;DHT22;37709;53.480;9.688;2023-02-19T04:39:03;2.70;99.90
2407;DHT22;37709;53.480;9.688;2023-02-19T04:41:30;2.70;99.90
2407;DHT22;37709;53.480;9.688;2023-02-19T04:43:57;2.70;99.90
2407;DHT22;37709;53.480;9.688;2023-02-19T04:46:24;2.70;99.90
2407;DHT22;37709;53.480;9.688;2023-02-19T04:48:52;2.70;99.90
2407;DHT22;37709;53.480;9.688;2023-02-19T04:51:19;2.70;99.90
2407;DHT22;37709;53.480;9.688;2023-02-19T04:53:46;2.70;99.90
2407;DHT22;37709;53.480;9.688;2023-02-19T04:56:15;2.70;99.90
2407;DHT22;37709;53.480;9.688;2023-02-19T04:58:43;2.70;99.90
2407;DHT22;37709;53.480;9.688;2023-02-19T05:01:11;2.60;99.90
2407;DHT22;37709;53.480;9.688;2023-02-19T05:03:39;2.60;99.90
2407;DHT22;37709;53.480;9.688;2023-02-19T05:06:10;2.50;99.90
2407;DHT22;37709;53.480;9.688;2023-02-19T05:08:38;2.40;99.90
2407;DHT22;37709;53.480;9.688;2023-02-19T05:11:07;2.30;99.90
2407;DHT22;37709;53.480;9.688;2023-02-19T05:13:37;2.20;99.90
2407;DHT22;37709;53.480;9.688;2023-02-19T05:16:10;2.10;99.90
2407;DHT22;37709;53.480;9.688;2023-02-19T05:18:42;1.90;99.90
2407;DHT22;37709;53.480;9.688;2023-02-19T05:21:10;1.80;99.90
2407;DHT22;37709;53.480;9.688;2023-02-19T05:23:38;1.70;99.90
2407;DHT22;37709;53.480;9.688;2023-02-19T05:26:08;1.70;99.90
2407;DHT22;37709;53.480;9.688;2023-02-19T05:28:35;1.60;99.90
2407;DHT22;37709;53.480;9.688;2023-02-19T05:31:06;1.60;99.90
2407;DHT22;37709;53.480;9.688;2023-02-19T05:33:34;1.50;99.90
2407;DHT22;37709;53.480;9.688;2023-02-19T05:36:05;1.50;99.90
2407;DHT22;37709;53.480;9.688;2023-02-19T05:38:33;1.40;99.90
2407;DHT22;37709;53.480;9.688;2023-02-19T05:41:12;1.30;99.90
2407;DHT22;37709;53.480;9.688;2023-02-19T05:43:41;1.20;99.90
2407;DHT22;37709;53.480;9.688;2023-02-19T05:46:10;1.20;99.90
2407;DHT22;37709;53.480;9.688;2023-02-19T05:48:37;1.10;99.90
2407;DHT22;37709;53.480;9.688;2023-02-19T05:51:10;1.00;99.90
2407;DHT22;37709;53.480;9.688;2023-02-19T05:53:38;1.00;99.90
2407;DHT22;37709;53.480;9.688;2023-02-19T05:58:49;0.90;99.90
2407;DHT22;37709;53.480;9.688;2023-02-19T06:01:18;0.80;99.90
2407;DHT22;37709;53.480;9.688;2023-02-19T06:03:46;0.70;99.90
2407;DHT22;37709;53.480;9.688;2023-02-19T06:06:15;0.70;99.90
2407;DHT22;37709;53.480;9.688;2023-02-19T06:08:43;0.70;99.90
2407;DHT22;37709;53.480;9.688;2023-02-19T06:11:11;0.60;99.90
2407;DHT22;37709;53.480;9.688;2023-02-19T06:13:38;0.60;99.90
2407;DHT22;37709;53.480;9.688;2023-02-19T06:16:06;0.70;99.90
2407;DHT22;37709;53.480;9.688;2023-02-19T06:18:35;0.80;99.90
2407;DHT22;37709;53.480;9.688;2023-02-19T06:21:05;0.90;99.90
2407;DHT22;37709;53.480;9.688;2023-02-19T06:23:33;1.00;99.90
2407;DHT22;37709;53.480;9.688;2023-02-19T06:26:21;1.10;99.90
2407;DHT22;37709;53.480;9.688;2023-02-19T06:28:50;1.20;99.90
2407;DHT22;37709;53.480;9.688;2023-02-19T06:31:19;1.30;99.90
2407;DHT22;37709;53.480;9.688;2023-02-19T06:33:47;1.30;99.90
2407;DHT22;37709;53.480;9.688;2023-02-19T06:36:18;1.30;99.90
2407;DHT22;37709;53.480;9.688;2023-02-19T06:38:46;1.30;99.90
2407;DHT22;37709;53.480;9.688;2023-02-19T06:41:13;1.20;99.90
2407;DHT22;37709;53.480;9.688;2023-02-19T06:43:41;1.20;99.90
2407;DHT22;37709;53.480;9.688;2023-02-19T06:46:11;1.10;99.90
2407;DHT22;37709;53.480;9.688;2023-02-19T06:48:40;1.00;99.90
2407;DHT22;37709;53.480;9.688;2023-02-19T06:51:14;1.00;99.90
2407;DHT22;37709;53.480;9.688;2023-02-19T06:53:42;1.10;99.90
2407;DHT22;37709;53.480;9.688;2023-02-19T06:56:47;1.10;99.90
2407;DHT22;37709;53.480;9.688;2023-02-19T06:59:15;1.10;99.90
2407;DHT22;37709;53.480;9.688;2023-02-19T07:01:45;1.00;99.90
2407;DHT22;37709;53.480;9.688;2023-02-19T07:04:12;1.00;99.90
2407;DHT22;37709;53.480;9.688;2023-02-19T07:06:40;1.00;99.90
2407;DHT22;37709;53.480;9.688;2023-02-19T07:09:09;1.00;99.90
2407;DHT22;37709;53.480;9.688;2023-02-19T07:11:38;1.00;99.90
2407;DHT22;37709;53.480;9.688;2023-02-19T07:14:07;1.10;99.90
2407;DHT22;37709;53.480;9.688;2023-02-19T07:16:35;1.20;99.90
2407;DHT22;37709;53.480;9.688;2023-02-19T07:19:03;1.30;99.90
2407;DHT22;37709;53.480;9.688;2023-02-19T07:21:31;1.50;99.90
2407;DHT22;37709;53.480;9.688;2023-02-19T07:24:04;2.00;99.90
2407;DHT22;37709;53.480;9.688;2023-02-19T07:26:32;2.50;99.90
2407;DHT22;37709;53.480;9.688;2023-02-19T07:28:59;3.20;99.90
2407;DHT22;37709;53.480;9.688;2023-02-19T07:31:27;3.80;99.90
2407;DHT22;37709;53.480;9.688;2023-02-19T07:33:55;3.90;99.90
2407;DHT22;37709;53.480;9.688;2023-02-19T07:36:23;3.90;99.90
2407;DHT22;37709;53.480;9.688;2023-02-19T07:38:55;3.90;99.90
2407;DHT22;37709;53.480;9.688;2023-02-19T07:41:23;4.00;99.90
2407;DHT22;37709;53.480;9.688;2023-02-19T07:43:55;4.10;99.90
2407;DHT22;37709;53.480;9.688;2023-02-19T07:46:23;4.10;99.90
2407;DHT22;37709;53.480;9.688;2023-02-19T07:48:51;3.80;99.90
2407;DHT22;37709;53.480;9.688;2023-02-19T07:51:19;3.40;99.90
2407;DHT22;37709;53.480;9.688;2023-02-19T07:53:48;3.10;99.90
2407;DHT22;37709;53.480;9.688;2023-02-19T07:56:18;2.80;99.90
2407;DHT22;37709;53.480;9.688;2023-02-19T07:58:48;2.60;99.90
2407;DHT22;37709;53.480;9.688;2023-02-19T08:01:18;2.60;99.90
2407;DHT22;37709;53.480;9.688;2023-02-19T08:03:45;2.90;99.90
2407;DHT22;37709;53.480;9.688;2023-02-19T08:06:16;3.70;99.90
2407;DHT22;37709;53.480;9.688;2023-02-19T08:08:43;5.20;99.90
2407;DHT22;37709;53.480;9.688;2023-02-19T08:11:10;6.50;99.90
2407;DHT22;37709;53.480;9.688;2023-02-19T08:13:56;6.90;99.90
2407;DHT22;37709;53.480;9.688;2023-02-19T08:16:24;7.50;99.90
2407;DHT22;37709;53.480;9.688;2023-02-19T08:19:08;7.90;99.90
2407;DHT22;37709;53.480;9.688;2023-02-19T08:21:36;8.30;99.90
2407;DHT22;37709;53.480;9.688;2023-02-19T08:24:03;7.80;99.90
2407;DHT22;37709;53.480;9.688;2023-02-19T08:26:32;7.10;99.90
2407;DHT22;37709;53.480;9.688;2023-02-19T08:28:59;6.50;99.90
2407;DHT22;37709;53.480;9.688;2023-02-19T08:31:27;6.50;99.90
2407;DHT22;37709;53.480;9.688;2023-02-19T08:33:55;6.90;99.90
2407;DHT22;37709;53.480;9.688;2023-02-19T08:36:22;6.70;99.90
2407;DHT22;37709;53.480;9.688;2023-02-19T08:38:52;6.90;99.90
2407;DHT22;37709;53.480;9.688;2023-02-19T08:41:20;7.10;99.90
2407;DHT22;37709;53.480;9.688;2023-02-19T08:43:48;7.90;99.90
2407;DHT22;37709;53.480;9.688;2023-02-19T08:46:15;7.90;99.90
2407;DHT22;37709;53.480;9.688;2023-02-19T08:48:43;8.40;99.90
2407;DHT22;37709;53.480;9.688;2023-02-19T08:51:11;8.30;99.90
2407;DHT22;37709;53.480;9.688;2023-02-19T08:53:40;8.70;99.90
2407;DHT22;37709;53.480;9.688;2023-02-19T08:56:13;9.40;99.90
2407;DHT22;37709;53.480;9.688;2023-02-19T08:58:43;9.70;99.90
2407;DHT22;37709;53.480;9.688;2023-02-19T09:01:12;10.70;99.90
2407;DHT22;37709;53.480;9.688;2023-02-19T09:03:41;11.40;99.90
2407;DHT22;37709;53.480;9.688;2023-02-19T09:06:16;12.20;99.90
2407;DHT22;37709;53.480;9.688;2023-02-19T09:08:44;12.70;99.90
2407;DHT22;37709;53.480;9.688;2023-02-19T09:11:11;13.20;99.90
2407;DHT22;37709;53.480;9.688;2023-02-19T09:13:42;13.80;99.90
2407;DHT22;37709;53.480;9.688;2023-02-19T09:16:10;14.10;99.90
2407;DHT22;37709;53.480;9.688;2023-02-19T09:18:37;14.50;99.90
2407;DHT22;37709;53.480;9.688;2023-02-19T09:21:05;15.10;99.90
2407;DHT22;37709;53.480;9.688;2023-02-19T09:23:35;15.20;99.90
2407;DHT22;37709;53.480;9.688;2023-02-19T09:26:04;15.40;99.90
2407;DHT22;37709;53.480;9.688;2023-02-19T09:28:34;16.00;99.90
2407;DHT22;37709;53.480;9.688;2023-02-19T09:31:03;16.00;99.90
2407;DHT22;37709;53.480;9.688;2023-02-19T09:33:31;15.80;99.90
2407;DHT22;37709;53.480;9.688;2023-02-19T09:35:59;16.00;99.90
2407;DHT22;37709;53.480;9.688;2023-02-19T09:38:29;16.30;99.90
2407;DHT22;37709;53.480;9.688;2023-02-19T09:40:58;16.70;99.90
2407;DHT22;37709;53.480;9.688;2023-02-19T09:43:27;16.70;99.90
2407;DHT22;37709;53.480;9.688;2023-02-19T09:46:22;17.10;99.90
2407;DHT22;37709;53.480;9.688;2023-02-19T09:48:52;17.50;99.90
2407;DHT22;37709;53.480;9.688;2023-02-19T09:51:20;17.70;99.90
2407;DHT22;37709;53.480;9.688;2023-02-19T09:53:49;17.30;99.10
2407;DHT22;37709;53.480;9.688;2023-02-19T09:56:17;17.30;99.30
2407;DHT22;37709;53.480;9.688;2023-02-19T09:58:49;17.30;98.10
2407;DHT22;37709;53.480;9.688;2023-02-19T10:01:18;17.60;98.50
2407;DHT22;37709;53.480;9.688;2023-02-19T10:03:47;17.90;97.70
2407;DHT22;37709;53.480;9.688;2023-02-19T10:06:22;18.40;98.40
2407;DHT22;37709;53.480;9.688;2023-02-19T10:08:53;19.00;96.90
2407;DHT22;37709;53.480;9.688;2023-02-19T10:11:22;19.20;96.50
2407;DHT22;37709;53.480;9.688;2023-02-19T10:14:05;19.40;94.70
2407;DHT22;37709;53.480;9.688;2023-02-19T10:16:39;19.70;94.70
2407;DHT22;37709;53.480;9.688;2023-02-19T10:19:11;20.30;93.70
2407;DHT22;37709;53.480;9.688;2023-02-19T10:21:39;20.70;92.30
2407;DHT22;37709;53.480;9.688;2023-02-19T10:24:07;20.80;90.80
2407;DHT22;37709;53.480;9.688;2023-02-19T10:26:36;20.40;92.00
2407;DHT22;37709;53.480;9.688;2023-02-19T10:29:04;21.40;92.60
2407;DHT22;37709;53.480;9.688;2023-02-19T10:31:32;22.00;90.70
2407;DHT22;37709;53.480;9.688;2023-02-19T10:34:00;22.10;87.80
2407;DHT22;37709;53.480;9.688;2023-02-19T10:36:41;21.30;84.70
2407;DHT22;37709;53.480;9.688;2023-02-19T10:42:13;19.40;89.90
2407;DHT22;37709;53.480;9.688;2023-02-19T10:44:44;21.70;91.20
2407;DHT22;37709;53.480;9.688;2023-02-19T10:47:21;23.00;82.20
2407;DHT22;37709;53.480;9.688;2023-02-19T10:49:50;24.00;81.70
2407;DHT22;37709;53.480;9.688;2023-02-19T10:52:26;23.50;76.30
2407;DHT22;37709;53.480;9.688;2023-02-19T10:55:24;24.10;76.90
2407;DHT22;37709;53.480;9.688;2023-02-19T10:57:52;24.50;76.30
2407;DHT22;37709;53.480;9.688;2023-02-19T11:00:28;24.10;68.70
2407;DHT22;37709;53.480;9.688;2023-02-19T11:03:21;22.40;73.90
2407;DHT22;37709;53.480;9.688;2023-02-19T11:06:01;21.10;74.00
2407;DHT22;37709;53.480;9.688;2023-02-19T11:08:30;21.20;71.90
2407;DHT22;37709;53.480;9.688;2023-02-19T11:10:59;18.40;75.00
2407;DHT22;37709;53.480;9.688;2023-02-19T11:13:29;16.00;79.80
2407;DHT22;37709;53.480;9.688;2023-02-19T11:15:59;15.40;85.70
2407;DHT22;37709;53.480;9.688;2023-02-19T11:18:28;18.80;86.20
2407;DHT22;37709;53.480;9.688;2023-02-19T11:21:01;20.70;78.20
2407;DHT22;37709;53.480;9.688;2023-02-19T11:23:33;22.70;74.60
2407;DHT22;37709;53.480;9.688;2023-02-19T11:26:05;19.50;69.50
2407;DHT22;37709;53.480;9.688;2023-02-19T11:28:38;18.60;76.00
2407;DHT22;37709;53.480;9.688;2023-02-19T11:33:55;17.00;80.60
2407;DHT22;37709;53.480;9.688;2023-02-19T11:36:44;15.70;81.50
2407;DHT22;37709;53.480;9.688;2023-02-19T11:41:59;14.60;84.90
2407;DHT22;37709;53.480;9.688;2023-02-19T11:48:11;17.40;74.90
2407;DHT22;37709;53.480;9.688;2023-02-19T11:53:55;13.50;80.40
2407;DHT22;37709;53.480;9.688;2023-02-19T11:56:34;12.30;81.10
2407;DHT22;37709;53.480;9.688;2023-02-19T11:59:04;12.20;83.00
2407;DHT22;37709;53.480;9.688;2023-02-19T12:01:59;12.60;81.90
2407;DHT22;37709;53.480;9.688;2023-02-19T12:18:32;19.30;70.40
2407;DHT22;37709;53.480;9.688;2023-02-19T12:24:10;16.90;73.30
2407;DHT22;37709;53.480;9.688;2023-02-19T12:29:49;20.40;68.80
2407;DHT22;37709;53.480;9.688;2023-02-19T12:32:41;22.40;68.50
2407;DHT22;37709;53.480;9.688;2023-02-19T12:38:21;22.90;60.40
2407;DHT22;37709;53.480;9.688;2023-02-19T12:43:34;23.30;58.70
2407;DHT22;37709;53.480;9.688;2023-02-19T12:46:13;23.40;59.20
2407;DHT22;37709;53.480;9.688;2023-02-19T12:48:50;20.80;57.20
2407;DHT22;37709;53.480;9.688;2023-02-19T12:51:30;19.00;58.80
2407;DHT22;37709;53.480;9.688;2023-02-19T12:54:03;18.40;61.90
2407;DHT22;37709;53.480;9.688;2023-02-19T12:56:39;19.60;61.00
2407;DHT22;37709;53.480;9.688;2023-02-19T12:59:23;20.60;63.30
2407;DHT22;37709;53.480;9.688;2023-02-19T13:02:10;20.80;64.90
2407;DHT22;37709;53.480;9.688;2023-02-19T13:04:41;21.40;62.60
2407;DHT22;37709;53.480;9.688;2023-02-19T13:07:19;21.00;59.30
2407;DHT22;37709;53.480;9.688;2023-02-19T13:09:55;20.10;66.20
2407;DHT22;37709;53.480;9.688;2023-02-19T13:12:28;20.00;62.40
2407;DHT22;37709;53.480;9.688;2023-02-19T13:14:58;19.60;63.60
2407;DHT22;37709;53.480;9.688;2023-02-19T13:17:49;19.30;63.00
2407;DHT22;37709;53.480;9.688;2023-02-19T13:20:36;19.00;61.90
2407;DHT22;37709;53.480;9.688;2023-02-19T13:26:23;18.60;64.70
2407;DHT22;37709;53.480;9.688;2023-02-19T13:32:37;17.80;62.50
2407;DHT22;37709;53.480;9.688;2023-02-19T13:38:20;17.10;64.60
2407;DHT22;37709;53.480;9.688;2023-02-19T13:40:55;15.50;67.50
2407;DHT22;37709;53.480;9.688;2023-02-19T13:43:32;15.00;69.80
2407;DHT22;37709;53.480;9.688;2023-02-19T13:46:12;15.30;68.90
2407;DHT22;37709;53.480;9.688;2023-02-19T13:48:42;15.50;69.80
2407;DHT22;37709;53.480;9.688;2023-02-19T14:14:37;14.50;72.60
2407;DHT22;37709;53.480;9.688;2023-02-19T14:25:36;13.20;77.10
2407;DHT22;37709;53.480;9.688;2023-02-19T14:31:07;12.10;79.30
2407;DHT22;37709;53.480;9.688;2023-02-19T14:33:44;12.50;80.90
2407;DHT22;37709;53.480;9.688;2023-02-19T14:36:16;13.30;78.60
2407;DHT22;37709;53.480;9.688;2023-02-19T14:41:30;13.70;77.30
2407;DHT22;37709;53.480;9.688;2023-02-19T14:43:59;13.50;77.40
2407;DHT22;37709;53.480;9.688;2023-02-19T14:46:36;13.40;76.60
2407;DHT22;37709;53.480;9.688;2023-02-19T14:49:24;13.30;77.10
2407;DHT22;37709;53.480;9.688;2023-02-19T14:51:59;13.40;77.10
2407;DHT22;37709;53.480;9.688;2023-02-19T14:54:49;13.10;77.20
2407;DHT22;37709;53.480;9.688;2023-02-19T14:57:21;12.60;78.20
2407;DHT22;37709;53.480;9.688;2023-02-19T15:02:42;12.60;79.50
2407;DHT22;37709;53.480;9.688;2023-02-19T15:05:30;12.50;79.60
2407;DHT22;37709;53.480;9.688;2023-02-19T15:08:00;12.30;79.80
2407;DHT22;37709;53.480;9.688;2023-02-19T15:10:30;12.30;81.30
2407;DHT22;37709;53.480;9.688;2023-02-19T15:13:01;12.00;81.40
2407;DHT22;37709;53.480;9.688;2023-02-19T15:15:36;11.70;82.80
2407;DHT22;37709;53.480;9.688;2023-02-19T15:18:06;11.50;82.20
2407;DHT22;37709;53.480;9.688;2023-02-19T15:20:35;11.10;80.10
2407;DHT22;37709;53.480;9.688;2023-02-19T15:23:04;10.70;80.70
2407;DHT22;37709;53.480;9.688;2023-02-19T15:25:35;10.40;79.20
2407;DHT22;37709;53.480;9.688;2023-02-19T15:33:26;9.70;85.20
2407;DHT22;37709;53.480;9.688;2023-02-19T15:36:02;9.40;85.80
2407;DHT22;37709;53.480;9.688;2023-02-19T15:38:30;9.20;87.40
2407;DHT22;37709;53.480;9.688;2023-02-19T15:40:59;9.00;88.80
2407;DHT22;37709;53.480;9.688;2023-02-19T15:43:40;8.70;88.90
2407;DHT22;37709;53.480;9.688;2023-02-19T15:46:17;8.60;90.70
2407;DHT22;37709;53.480;9.688;2023-02-19T15:49:18;8.50;91.10
2407;DHT22;37709;53.480;9.688;2023-02-19T15:51:51;8.30;91.80
2407;DHT22;37709;53.480;9.688;2023-02-19T15:54:35;8.10;91.80
2407;DHT22;37709;53.480;9.688;2023-02-19T15:57:07;8.00;92.50
2407;DHT22;37709;53.480;9.688;2023-02-19T15:59:45;7.80;92.90
2407;DHT22;37709;53.480;9.688;2023-02-19T16:02:14;7.70;93.80
2407;DHT22;37709;53.480;9.688;2023-02-19T16:04:43;7.60;93.90
2407;DHT22;37709;53.480;9.688;2023-02-19T16:07:26;7.50;94.40
2407;DHT22;37709;53.480;9.688;2023-02-19T16:10:21;7.30;94.50
2407;DHT22;37709;53.480;9.688;2023-02-19T16:12:56;7.10;95.10
2407;DHT22;37709;53.480;9.688;2023-02-19T16:15:25;6.90;95.10
2407;DHT22;37709;53.480;9.688;2023-02-19T16:17:54;6.70;94.70
2407;DHT22;37709;53.480;9.688;2023-02-19T16:20:25;6.60;95.60
2407;DHT22;37709;53.480;9.688;2023-02-19T16:23:08;6.50;95.60
2407;DHT22;37709;53.480;9.688;2023-02-19T16:25:39;6.30;95.60
2407;DHT22;37709;53.480;9.688;2023-02-19T16:28:13;6.20;96.40
2407;DHT22;37709;53.480;9.688;2023-02-19T16:30:44;6.10;96.60
2407;DHT22;37709;53.480;9.688;2023-02-19T16:38:59;5.70;97.90
2407;DHT22;37709;53.480;9.688;2023-02-19T16:41:26;5.50;98.50
2407;DHT22;37709;53.480;9.688;2023-02-19T16:43:53;5.50;98.50
2407;DHT22;37709;53.480;9.688;2023-02-19T16:46:21;5.40;98.60
2407;DHT22;37709;53.480;9.688;2023-02-19T16:48:48;5.30;99.40
2407;DHT22;37709;53.480;9.688;2023-02-19T16:51:22;5.10;99.80
2407;DHT22;37709;53.480;9.688;2023-02-19T16:53:51;5.00;99.90
2407;DHT22;37709;53.480;9.688;2023-02-19T16:56:20;4.90;99.90
2407;DHT22;37709;53.480;9.688;2023-02-19T16:58:49;4.80;99.90
2407;DHT22;37709;53.480;9.688;2023-02-19T17:01:17;4.70;99.90
2407;DHT22;37709;53.480;9.688;2023-02-19T17:03:45;4.60;99.90
2407;DHT22;37709;53.480;9.688;2023-02-19T17:06:16;4.60;99.90
2407;DHT22;37709;53.480;9.688;2023-02-19T17:08:43;4.50;99.90
2407;DHT22;37709;53.480;9.688;2023-02-19T17:11:13;4.50;99.90
2407;DHT22;37709;53.480;9.688;2023-02-19T17:13:42;4.50;99.90
2407;DHT22;37709;53.480;9.688;2023-02-19T17:16:17;4.50;99.90
2407;DHT22;37709;53.480;9.688;2023-02-19T17:18:45;4.50;99.90
2407;DHT22;37709;53.480;9.688;2023-02-19T17:23:46;4.40;99.90
2407;DHT22;37709;53.480;9.688;2023-02-19T17:26:14;4.40;99.90
2407;DHT22;37709;53.480;9.688;2023-02-19T17:28:42;4.30;99.90
2407;DHT22;37709;53.480;9.688;2023-02-19T17:31:10;4.30;99.90
2407;DHT22;37709;53.480;9.688;2023-02-19T17:33:38;4.30;99.90
2407;DHT22;37709;53.480;9.688;2023-02-19T17:36:06;4.30;99.90
2407;DHT22;37709;53.480;9.688;2023-02-19T17:38:33;4.30;99.90
2407;DHT22;37709;53.480;9.688;2023-02-19T17:41:01;4.30;99.90
2407;DHT22;37709;53.480;9.688;2023-02-19T17:43:28;4.30;99.90
2407;DHT22;37709;53.480;9.688;2023-02-19T17:45:56;4.40;99.90
2407;DHT22;37709;53.480;9.688;2023-02-19T17:48:23;4.40;99.90
2407;DHT22;37709;53.480;9.688;2023-02-19T17:50:50;4.30;99.90
2407;DHT22;37709;53.480;9.688;2023-02-19T17:53:18;4.20;99.90
2407;DHT22;37709;53.480;9.688;2023-02-19T17:55:45;4.10;99.90
2407;DHT22;37709;53.480;9.688;2023-02-19T17:58:13;4.10;99.90
2407;DHT22;37709;53.480;9.688;2023-02-19T18:00:40;4.10;99.90
2407;DHT22;37709;53.480;9.688;2023-02-19T18:03:07;4.10;99.90
2407;DHT22;37709;53.480;9.688;2023-02-19T18:05:34;4.20;99.90
2407;DHT22;37709;53.480;9.688;2023-02-19T18:08:02;4.10;99.90
2407;DHT22;37709;53.480;9.688;2023-02-19T18:10:30;3.90;99.90
2407;DHT22;37709;53.480;9.688;2023-02-19T18:12:58;3.90;99.90
2407;DHT22;37709;53.480;9.688;2023-02-19T18:15:25;4.00;99.90
2407;DHT22;37709;53.480;9.688;2023-02-19T18:17:54;4.10;99.90
2407;DHT22;37709;53.480;9.688;2023-02-19T18:20:25;4.20;99.90
2407;DHT22;37709;53.480;9.688;2023-02-19T18:22:55;4.20;99.90
2407;DHT22;37709;53.480;9.688;2023-02-19T18:25:23;4.20;99.90
2407;DHT22;37709;53.480;9.688;2023-02-19T18:27:50;4.20;99.90
2407;DHT22;37709;53.480;9.688;2023-02-19T18:30:19;4.20;99.90
2407;DHT22;37709;53.480;9.688;2023-02-19T18:32:49;4.30;99.90
2407;DHT22;37709;53.480;9.688;2023-02-19T18:35:18;4.30;99.90